Terminal Aerodrome Forecast
Issued by NWS

Home | Current Version | Previous Version | Text Only | Print | Product List | Glossary On
Versions: 1 2 3 4 5 6 7 8 9 10 11 12 13 14 15 16
000
FTAK31 PANC 241737
TAFAAQ
TAF
PAAQ 241737Z 2418/2518 04006KT P6SM VCSH SCT080 OVC120
     FM250400 14010KT 6SM -RA SCT020 BKN040 OVC060 PROB30 2506/2512
      3SM RA BR BKN010 OVC020
     FM251500 VRB06KT P6SM -RA SCT020 BKN040 OVC060=

USA.gov is the U.S. government's official web portal to all federal, state and local government web resources and services.